Arcadia, Florida
Current Conditions -  °F | °C
As of 10:53 AM on Thursday 27 Nov 2014 (Local Time) from KPGD Reporting Station
Clear Clear  
Wind Chill: 69°   Ceiling: Unl
Heat Index: 69°   Visibility: 10mi
Dew Point: 48°   Wind: 6mph
Humidity: 47%   Direction: 330°NNW
Pressure: 30.3"   Gusts: NA
Location:  27.22°N, 81.86°W
Report Text: KPGD 271553Z 33005KT 10SM CLR 21/09 A3030 RMK AO2 SLP262 T02060089
Loading
Personal Weather Stations






























Interactive Weather Map New forecast layout! Learn more

10-Day Weather Forecast

Advertisements
Track Severe Weather on mobile